Terminal Aerodrome Forecast
Issued by NWS Midland/Odessa, TX

Home | Current Version | Previous Version | Text Only | Print | Product List | Glossary On
Versions: 1 2 3 4 5 6 7 8 9 10 11 12 13 14 15 16 17
000
FTUS44 KMAF 221700 RRA
TAFMAF
TAF
KMAF 221742Z 2218/2318 30015G22KT P6SM SCT200
     FM230000 30009KT P6SM SCT200
     FM231000 35015G25KT P6SM OVC100
     FM231200 01017G27KT 5SM -SHRA BR SCT010 OVC030=

USA.gov is the U.S. government's official web portal to all federal, state and local government web resources and services.